Aérodrome :
LOGIN :

S'inscrire | Disclaimer

   EN    FR    IT 

 










Légende :    VFR   VFR Marginal   IFR   IFR Intensif   IFR Très Intensif
Visi : 
Plafond : 
>= 8 km
>= 3000ft
5 à 8 km
1000 à 3000 ft
1500m à 5 km
500 à 1000 ft
800 à 1500m
200 à 500 ft
< 800m
< 200 ft
Symboles :   Orages  Brouillard  Fortes neiges  Fortes précipitations  Vent > 20 kt
SIGMETs :   Divers  Orages  Givrage  Turbulence  Onde Orograph.  Cendres Volcan.






- Altitude de l'aérodrome : 256 ft
- Code IATA : CFR


LFRK - Caen

DERNIER METAR :
  • 011530Z AUTO 29013KT 9999 FEW033 OVC052 09/04 Q1029 NOSIG

METARs EXPIRÉS :
  • 011500Z AUTO 28010KT 9999 FEW035 BKN054 09/05 Q1029 NOSIG
  • 011430Z AUTO 27010KT 9999 SCT032 BKN039 BKN048 09/05 Q1029 NOSIG
  • 011400Z AUTO 28013KT 9999 FEW041 OVC050 10/04 Q1029 TEMPO 28015G25KT
  • 011330Z AUTO 28013KT CAVOK 10/04 Q1029 TEMPO 28015G25KT
  • 011300Z AUTO 28015KT CAVOK 10/04 Q1030 TEMPO 28015G25KT

TAF TAF LFRK
Valide du 01 à 15h jusqu'au 02 à 00h UTC


011400Z 0115/0124 28013KT 9999 BKN045
Météo : +33 2 31 26 68 11



MET'MAP, la Météo Aéronautique d'un coup d'oeil ! - Copyright ORBIFLY Décembre 2007 - Disclaimer

ORBIFLY MET'MAP TEAM :

Programmation & Développement : Alexandra Zaïnal
Sur une idée originale de : Baudouin d'Aumeries
Soutien technique & logistique : Manuel Goepfert
Assistance : Marc-Olivier Méhu




SOURCES & CREDITS :

   NOAA